Terminal Aerodrome Forecast
Issued by NWS

Home | Current Version | Previous Version | Text Only | Print | Product List | Glossary On
Versions: 1 2 3 4 5 6 7 8 9 10 11 12 13 14 15 16
000
FTUS45 KRIW 020500
TAFBPI
TAF
KBPI 020520Z 0206/0306 VRB10KT P6SM VCSH BKN110
     FM020700 VRB06KT P6SM SCT120
     FM022200 VRB10G20KT P6SM VCSH BKN110=

USA.gov is the U.S. government's official web portal to all federal, state and local government web resources and services.